Time;durP1;ratioP1;P1;durP2;ratioP2;P2;SDS_P1;SDS_P2;PMS_P1;PMS_P2;Temp;Humidity;BMP_temperature;BMP_pressure;BME280_temperature;BME280_humidity;BME280_pressure;Samples;Min_cycle;Max_cycle;Signal;HPM_P1;HPM_P2
2024/02/08 00:01:55;;;;;;;19.80;10.35;;;256.50;2252.80;;;;;;5116178;28;20077;-81
2024/02/08 00:04:21;;;;;;;22.67;11.25;;;256.40;2252.80;;;;;;5114523;28;20083;-76
2024/02/08 00:06:47;;;;;;;22.90;11.40;;;256.30;2252.80;;;;;;5114046;28;20352;-82
2024/02/08 00:09:13;;;;;;;25.60;12.23;;;256.30;2252.80;;;;;;5095405;28;20038;-81
2024/02/08 00:11:38;;;;;;;24.33;11.02;;;256.20;2252.80;;;;;;5113472;28;20061;-80
2024/02/08 00:14:04;;;;;;;24.38;11.55;;;231.30;2252.80;;;;;;5113205;28;20059;-80
2024/02/08 00:16:30;;;;;;;20.45;10.82;;;231.10;2252.80;;;;;;5114068;28;20027;-77
2024/02/08 00:18:55;;;;;;;20.33;10.45;;;231.00;2252.80;;;;;;5113529;28;20425;-80
2024/02/08 00:21:22;;;;;;;21.30;10.57;;;230.90;2252.80;;;;;;5113604;28;20048;-81
2024/02/08 00:23:48;;;;;;;24.95;12.10;;;230.80;2252.80;;;;;;5113167;28;20032;-80
2024/02/08 00:26:16;;;;;;;23.85;11.80;;;230.90;2252.80;;;;;;5113655;28;20385;-81
2024/02/08 00:28:41;;;;;;;24.50;11.50;;;230.80;2252.80;;;;;;5113413;28;20114;-82
2024/02/08 00:31:07;;;;;;;24.75;11.38;;;230.80;2252.80;;;;;;5113245;28;20098;-80
2024/02/08 00:33:33;;;;;;;19.70;9.90;;;230.80;2252.80;;;;;;5113396;28;20102;-80
2024/02/08 00:36:00;;;;;;;18.73;9.88;;;230.80;2252.80;;;;;;5113661;28;20065;-81
2024/02/08 00:38:28;;;;;;;21.65;10.00;;;230.70;2252.80;;;;;;5112834;28;20054;-79
2024/02/08 00:40:55;;;;;;;16.23;9.25;;;230.70;2252.80;;;;;;5113805;28;20110;-81
2024/02/08 00:43:21;;;;;;;16.00;9.23;;;230.60;2252.80;;;;;;5113661;28;20023;-81
2024/02/08 00:45:47;;;;;;;16.48;9.40;;;230.50;2252.80;;;;;;5095385;28;20028;-80
2024/02/08 00:48:13;;;;;;;14.40;8.77;;;230.40;2252.80;;;;;;5113585;28;20024;-80
2024/02/08 00:50:39;;;;;;;16.52;9.73;;;205.70;2252.80;;;;;;5114393;28;20100;-81
2024/02/08 00:53:05;;;;;;;15.40;9.10;;;205.60;2252.80;;;;;;5111699;28;20020;-82
2024/02/08 00:55:33;;;;;;;17.95;9.43;;;205.50;2252.80;;;;;;5081633;28;20403;-78
2024/02/08 00:58:00;;;;;;;18.73;9.63;;;205.50;2252.80;;;;;;5105937;28;20040;-82
2024/02/08 01:00:37;;;;;;;19.73;10.15;;;205.50;2252.80;;;;;;5096187;28;20063;-81
2024/02/08 01:03:04;;;;;;;14.70;9.27;;;205.50;2252.80;;;;;;5097007;28;20042;-81
2024/02/08 01:05:30;;;;;;;19.58;10.57;;;205.50;2252.80;;;;;;5094916;28;20031;-81
2024/02/08 01:07:56;;;;;;;16.55;10.07;;;205.50;2252.80;;;;;;5094742;28;20043;-77
2024/02/08 01:10:22;;;;;;;18.02;10.43;;;205.50;2252.80;;;;;;5096411;28;20020;-81
2024/02/08 01:12:47;;;;;;;20.25;11.15;;;205.50;2252.80;;;;;;5102055;28;20126;-77
2024/02/08 01:15:14;;;;;;;19.02;9.95;;;205.60;2252.80;;;;;;5127069;27;20023;-76
2024/02/08 01:17:41;;;;;;;16.95;9.50;;;205.60;2252.80;;;;;;5137652;27;20118;-78
2024/02/08 01:20:10;;;;;;;18.33;9.70;;;205.70;2252.80;;;;;;5124225;27;20020;-77
2024/02/08 01:22:35;;;;;;;17.35;9.20;;;230.40;2252.80;;;;;;5107120;28;20082;-80
2024/02/08 01:25:01;;;;;;;16.80;8.98;;;230.50;2252.80;;;;;;5112327;28;20036;-81
2024/02/08 01:27:29;;;;;;;15.60;8.57;;;230.60;2252.80;;;;;;5112347;27;20022;-80
2024/02/08 01:29:59;;;;;;;17.20;8.50;;;230.60;2252.80;;;;;;5113823;28;20091;-80
2024/02/08 01:32:29;;;;;;;15.60;8.90;;;230.70;2252.80;;;;;;5114377;28;20023;-81
2024/02/08 01:34:55;;;;;;;15.57;8.27;;;230.80;2252.80;;;;;;5115083;28;20530;-77
2024/02/08 01:37:20;;;;;;;15.40;8.02;;;230.90;2252.80;;;;;;5115144;28;20406;-77
2024/02/08 01:39:46;;;;;;;13.98;8.35;;;230.90;2252.80;;;;;;5115591;28;20039;-77
2024/02/08 01:42:13;;;;;;;14.38;8.25;;;230.90;2252.80;;;;;;5096431;28;20393;-77
2024/02/08 01:45:01;;;;;;;14.30;8.23;;;230.90;2252.80;;;;;;5111948;28;20045;-79
2024/02/08 01:47:27;;;;;;;13.90;7.90;;;231.00;2252.80;;;;;;5114276;27;20020;-80
2024/02/08 01:49:54;;;;;;;15.40;8.55;;;231.00;2252.80;;;;;;5092566;27;20046;-78
2024/02/08 01:52:22;;;;;;;16.52;8.90;;;231.00;2252.80;;;;;;5108912;28;20022;-78
2024/02/08 01:54:53;;;;;;;18.77;9.45;;;230.90;2252.80;;;;;;5110450;27;20027;-80
2024/02/08 01:57:21;;;;;;;19.50;9.43;;;230.90;2252.80;;;;;;5114163;27;20015;-77
2024/02/08 01:59:52;;;;;;;15.55;9.23;;;230.80;2252.80;;;;;;5096394;28;20020;-80
2024/02/08 02:02:21;;;;;;;19.05;9.48;;;230.70;2252.80;;;;;;5107071;28;20024;-80
2024/02/08 02:04:47;;;;;;;17.65;9.40;;;230.60;2252.80;;;;;;5115237;28;20034;-78
2024/02/08 02:07:13;;;;;;;18.35;9.82;;;230.60;2252.80;;;;;;5105694;28;20487;-77
2024/02/08 02:09:39;;;;;;;19.42;9.60;;;230.50;2252.80;;;;;;5094813;28;20042;-81
2024/02/08 02:12:22;;;;;;;18.38;10.25;;;230.50;2252.80;;;;;;5114235;28;20051;-77
2024/02/08 02:14:51;;;;;;;20.75;10.77;;;230.50;2252.80;;;;;;5115052;28;20508;-79
2024/02/08 02:17:26;;;;;;;18.70;10.00;;;230.40;2252.80;;;;;;5115444;28;20057;-79
2024/02/08 02:19:52;;;;;;;;;;;230.40;2252.80;;;;;;5115656;28;20015;-75
2024/02/08 02:22:21;;;;;;;35.90;18.95;;;205.70;2252.80;;;;;;5115188;28;19998;-78
2024/02/08 02:24:48;;;;;;;18.30;10.70;;;205.70;2252.80;;;;;;5115136;28;20020;-77
2024/02/08 02:27:15;;;;;;;19.73;10.40;;;205.70;2252.80;;;;;;5115323;28;20015;-81
2024/02/08 02:29:44;;;;;;;18.17;11.02;;;205.60;2252.80;;;;;;5115678;28;20062;-83
2024/02/08 02:32:15;;;;;;;18.70;10.70;;;205.60;2252.80;;;;;;5118918;27;20020;-80
2024/02/08 02:34:42;;;;;;;18.40;10.05;;;205.50;2252.80;;;;;;5131777;27;20028;-77
2024/02/08 02:37:08;;;;;;;19.70;10.50;;;205.60;2252.80;;;;;;5116544;27;20035;-81
2024/02/08 02:39:34;;;;;;;16.80;10.55;;;205.40;2252.80;;;;;;5135611;27;20023;-80
2024/02/08 02:42:00;;;;;;;16.45;10.00;;;205.30;2252.80;;;;;;5135185;27;20019;-78
2024/02/08 02:44:29;;;;;;;18.52;10.40;;;205.10;2252.80;;;;;;5135887;27;20062;-81
2024/02/08 02:47:05;;;;;;;17.15;10.40;;;;;;;;;;5134999;27;20031;-81
2024/02/08 02:49:36;;;;;;;19.90;10.52;;;180.10;2252.80;;;;;;5135379;27;20027;-80
2024/02/08 02:52:07;;;;;;;20.13;10.70;;;179.80;2252.80;;;;;;5133604;27;20053;-80
2024/02/08 02:54:34;;;;;;;19.15;10.23;;;179.70;2252.80;;;;;;5114678;28;20027;-77
2024/02/08 02:57:00;;;;;;;19.67;10.05;;;179.50;2252.80;;;;;;5114392;28;20107;-79
2024/02/08 02:59:26;;;;;;;18.33;10.07;;;179.50;2252.80;;;;;;5114483;28;20090;-80
2024/02/08 03:01:55;;;;;;;20.83;10.43;;;179.40;2252.80;;;;;;5113149;28;20054;-80
2024/02/08 03:04:22;;;;;;;17.42;9.82;;;179.40;2252.80;;;;;;5119092;27;20039;-80
2024/02/08 03:06:53;;;;;;;19.77;10.25;;;179.40;2252.80;;;;;;5134848;27;20022;-78
2024/02/08 03:09:27;;;;;;;18.05;10.30;;;180.10;2252.80;;;;;;5124089;27;20493;-79
2024/02/08 03:11:54;;;;;;;20.45;10.38;;;179.40;2252.80;;;;;;5113343;28;20020;-78
2024/02/08 03:14:22;;;;;;;18.88;10.50;;;179.40;2252.80;;;;;;5113571;28;20140;-82
2024/02/08 03:16:48;;;;;;;18.25;10.05;;;179.30;2252.80;;;;;;5115203;28;20027;-79
2024/02/08 03:19:15;;;;;;;18.40;10.45;;;179.20;2252.80;;;;;;5114702;28;20031;-80
2024/02/08 03:21:41;;;;;;;20.60;11.40;;;154.50;2252.80;;;;;;5114282;28;20020;-79
2024/02/08 03:24:10;;;;;;;21.13;10.93;;;179.20;2252.80;;;;;;5114143;28;20038;-79
2024/02/08 03:26:47;;;;;;;19.40;11.07;;;154.30;2252.80;;;;;;5114501;28;20023;-80
2024/02/08 03:29:13;;;;;;;21.92;10.80;;;154.20;2252.80;;;;;;5103437;28;20024;-80
2024/02/08 03:31:47;;;;;;;21.83;11.43;;;154.20;2252.80;;;;;;5094081;28;20028;-82
2024/02/08 03:34:19;;;;;;;22.50;11.40;;;154.10;2252.80;;;;;;5093909;28;20059;-80
2024/02/08 03:36:46;;;;;;;20.13;11.15;;;154.00;2252.80;;;;;;5110049;28;20011;-80
2024/02/08 03:39:25;;;;;;;28.75;14.50;;;153.90;2252.80;;;;;;5118606;27;20544;-80
2024/02/08 03:42:02;;;;;;;23.55;12.10;;;153.90;2252.80;;;;;;5113017;28;20107;-80
2024/02/08 03:44:33;;;;;;;18.52;10.55;;;153.80;2252.80;;;;;;5092925;28;20028;-79
2024/02/08 03:47:07;;;;;;;24.52;13.43;;;153.80;2252.80;;;;;;5093084;28;20043;-78
2024/02/08 03:49:49;;;;;;;19.25;11.50;;;153.60;2252.80;;;;;;5093568;28;20070;-80
2024/02/08 03:52:18;;;;;;;19.73;10.90;;;153.70;2252.80;;;;;;5093644;28;20086;-80
2024/02/08 03:54:45;;;;;;;23.35;11.77;;;153.80;2252.80;;;;;;5101629;28;20023;-80
2024/02/08 03:57:13;;;;;;;21.00;11.75;;;153.80;2252.80;;;;;;5113924;28;20421;-80
2024/02/08 03:59:42;;;;;;;24.48;10.90;;;153.80;2252.80;;;;;;5113602;28;20026;-77
2024/02/08 04:02:09;;;;;;;21.70;11.10;;;153.90;2252.80;;;;;;5095310;28;20030;-81
2024/02/08 04:07:49;;;;;;;20.58;10.93;;;154.00;2252.80;;;;;;5093318;28;20537;-80
2024/02/08 04:54:17;;;;;;;15.07;8.13;;;204.80;2252.80;;;;;;5096823;28;20513;-80
2024/02/08 04:56:45;;;;;;;16.08;8.82;;;204.80;2252.80;;;;;;5096856;28;20452;-78
2024/02/08 04:59:12;;;;;;;14.75;8.40;;;179.90;2252.80;;;;;;5078473;28;20035;-80
2024/02/08 05:01:38;;;;;;;15.93;8.32;;;179.70;2252.80;;;;;;5092281;28;20360;-78
2024/02/08 05:04:04;;;;;;;14.88;8.65;;;179.60;2252.80;;;;;;5095545;28;20107;-80
2024/02/08 05:06:30;;;;;;;17.00;8.65;;;179.60;2252.80;;;;;;5102773;28;20051;-77
2024/02/08 05:08:59;;;;;;;17.33;8.98;;;179.60;2252.80;;;;;;5086626;28;20082;-82
2024/02/08 05:11:29;;;;;;;17.50;9.30;;;179.60;2252.80;;;;;;5087187;28;20498;-79
2024/02/08 05:14:00;;;;;;;18.38;9.88;;;179.40;2252.80;;;;;;5110021;28;20487;-79
2024/02/08 05:16:27;;;;;;;16.88;9.93;;;179.30;2252.80;;;;;;5105277;28;20089;-80
2024/02/08 05:18:56;;;;;;;18.25;9.57;;;154.50;2252.80;;;;;;5117108;28;20028;-77
2024/02/08 05:21:28;;;;;;;19.50;9.93;;;154.40;2252.80;;;;;;5116305;27;20034;-76
2024/02/08 05:23:58;;;;;;;13.75;8.65;;;154.20;2252.80;;;;;;5119974;27;20036;-80
2024/02/08 05:26:26;;;;;;;17.85;9.18;;;154.10;2252.80;;;;;;5112661;28;20031;-77
2024/02/08 05:28:53;;;;;;;23.38;10.93;;;154.10;2252.80;;;;;;5111385;27;20031;-81
2024/02/08 05:31:18;;;;;;;26.70;13.10;;;154.00;2252.80;;;;;;5118899;27;20348;-80
2024/02/08 05:33:44;;;;;;;23.08;12.02;;;154.00;2252.80;;;;;;5124648;27;20039;-80
2024/02/08 05:36:18;;;;;;;20.70;10.65;;;154.00;2252.80;;;;;;5114006;27;20019;-82
2024/02/08 05:38:45;;;;;;;23.20;11.52;;;154.00;2252.80;;;;;;5112967;27;20030;-79
2024/02/08 05:41:21;;;;;;;24.88;12.60;;;153.90;2252.80;;;;;;5123130;27;20019;-79
2024/02/08 05:43:51;;;;;;;23.15;12.82;;;153.90;2252.80;;;;;;5116034;27;20097;-81
2024/02/08 05:46:30;;;;;;;27.48;15.15;;;153.90;2252.80;;;;;;5107678;28;20031;-81
2024/02/08 05:49:13;;;;;;;31.98;15.80;;;153.90;2252.80;;;;;;5115985;27;20433;-81
2024/02/08 05:51:51;;;;;;;42.63;23.05;;;153.90;2252.80;;;;;;5123291;27;20497;-77
2024/02/08 05:54:20;;;;;;;56.53;25.92;;;154.00;2252.80;;;;;;5122822;27;20031;-81
2024/02/08 05:56:57;;;;;;;45.83;21.35;;;154.00;2252.80;;;;;;5136899;27;20015;-82
2024/02/08 05:59:22;;;;;;;43.15;20.45;;;154.00;2252.80;;;;;;5136909;27;20027;-80
2024/02/08 06:01:50;;;;;;;44.05;20.13;;;154.00;2252.80;;;;;;5117779;27;20027;-80
2024/02/08 06:04:25;;;;;;;34.90;17.00;;;154.10;2252.80;;;;;;5125971;27;20031;-80
2024/02/08 06:07:01;;;;;;;41.20;19.33;;;154.10;2252.80;;;;;;5115513;28;20019;-77
2024/02/08 06:12:16;;;;;;;36.97;19.60;;;154.30;2252.80;;;;;;5114967;28;20109;-79
2024/02/08 06:14:43;;;;;;;35.28;16.17;;;154.40;2252.80;;;;;;5089965;28;20044;-79
2024/02/08 06:17:09;;;;;;;37.00;17.65;;;154.50;2252.80;;;;;;5092192;28;20058;-82
2024/02/08 06:19:50;;;;;;;42.67;18.52;;;179.30;2252.80;;;;;;5093831;28;20032;-78
2024/02/08 06:22:22;;;;;;;54.75;23.02;;;179.70;2252.80;;;;;;5095370;28;20035;-80
2024/02/08 06:24:54;;;;;;;70.85;31.27;;;179.90;2252.80;;;;;;5094655;28;20032;-81
2024/02/08 06:27:25;;;;;;;63.97;32.45;;;180.10;2252.80;;;;;;5095093;28;20024;-78
2024/02/08 06:29:54;;;;;;;56.35;26.42;;;205.00;2252.80;;;;;;5094729;28;20479;-80
2024/02/08 06:34:55;;;;;;;40.42;19.80;;;205.50;2252.80;;;;;;5084968;28;20045;-77
2024/02/08 06:37:30;;;;;;;28.27;16.10;;;205.40;2252.80;;;;;;5079199;28;20020;-79
2024/02/08 06:39:56;;;;;;;33.05;17.42;;;205.30;2252.80;;;;;;5090916;28;20051;-80
2024/02/08 06:48:06;;;;;;;32.38;16.65;;;205.30;2252.80;;;;;;5097205;28;20541;-80
2024/02/08 07:37:29;;;;;;;40.88;21.23;;;333.30;2329.60;;;;;;5109244;27;20494;-77
2024/02/08 07:40:00;;;;;;;27.95;15.85;;;333.60;2329.60;;;;;;5135148;27;20115;-80
2024/02/08 07:42:32;;;;;;;15.77;8.65;;;333.60;2329.60;;;;;;5116976;28;20086;-80
2024/02/08 07:45:04;;;;;;;20.27;10.40;;;358.80;2252.80;;;;;;5119595;27;20441;-80
2024/02/08 07:47:33;;;;;;;23.00;12.48;;;333.40;2329.60;;;;;;5134088;27;20430;-79
2024/02/08 07:50:04;;;;;;;18.95;9.10;;;333.20;2329.60;;;;;;5134062;27;20051;-80
2024/02/08 07:52:33;;;;;;;40.33;15.73;;;332.80;2329.60;;;;;;5124574;27;20016;-78
2024/02/08 07:55:14;;;;;;;59.25;20.25;;;332.80;2329.60;;;;;;5105745;28;20425;-79
2024/02/08 07:57:48;;;;;;;20.55;10.80;;;333.10;2329.60;;;;;;5093915;28;20103;-80
2024/02/08 08:03:08;;;;;;;17.77;9.60;;;308.00;2304.00;;;;;;5104802;27;20043;-80
2024/02/08 08:05:41;;;;;;;25.52;12.88;;;307.80;2304.00;;;;;;5117740;28;20032;-80
2024/02/08 08:11:02;;;;;;;15.65;9.32;;;307.70;2304.00;;;;;;5118952;28;20046;-80
2024/02/08 08:18:59;;;;;;;18.08;8.85;;;308.00;2304.00;;;;;;5123985;27;20016;-79
2024/02/08 08:21:29;;;;;;;18.33;8.95;;;332.80;2329.60;;;;;;5095267;28;20031;-79
2024/02/08 08:24:02;;;;;;;16.50;8.85;;;332.80;2329.60;;;;;;5115707;27;20069;-79
2024/02/08 08:26:39;;;;;;;18.67;8.23;;;332.90;2329.60;;;;;;5106662;28;20034;-79
2024/02/08 08:29:13;;;;;;;17.67;9.73;;;333.00;2329.60;;;;;;5097649;28;20035;-80
2024/02/08 08:32:53;;;;;;;15.60;9.38;;;333.30;2329.60;;;;;;5107411;28;20008;-79
2024/02/08 08:40:25;;;;;;;16.30;9.68;;;384.40;2124.80;;;;;;5041173;28;20036;-80
2024/02/08 08:42:54;;;;;;;21.60;11.77;;;409.90;2022.40;;;;;;5054023;28;20033;-78
2024/02/08 08:45:21;;;;;;;18.30;10.15;;;384.90;1996.80;;;;;;5053200;28;20064;-78
2024/02/08 08:47:51;;;;;;;16.08;8.75;;;359.20;2099.20;;;;;;5013970;28;20041;-79
2024/02/08 08:50:20;;;;;;;18.08;10.65;;;359.10;2150.40;;;;;;5014141;28;20129;-78
2024/02/08 08:52:47;;;;;;;16.38;9.43;;;359.00;2150.40;;;;;;5013969;28;20072;-79
2024/02/08 08:55:20;;;;;;;17.10;8.88;;;358.90;2150.40;;;;;;5023107;28;20104;-79
2024/02/08 08:57:53;;;;;;;20.67;7.75;;;384.40;2099.20;;;;;;5030205;28;20398;-80
2024/02/08 09:00:31;;;;;;;15.35;7.57;;;409.70;2022.40;;;;;;5032459;28;20029;-80
2024/02/08 09:02:58;;;;;;;16.45;8.10;;;;;;;;;;5033727;28;20426;-79
2024/02/08 09:05:30;;;;;;;10.73;6.50;;;;;;;;;;5034485;28;20040;-79
2024/02/08 09:08:00;;;;;;;110.35;47.60;;;409.80;1996.80;;;;;;5032352;28;20018;-79
2024/02/08 09:10:34;;;;;;;25.80;14.70;;;384.80;2022.40;;;;;;5020299;28;20033;-81
2024/02/08 09:13:07;;;;;;;13.93;8.23;;;384.80;2022.40;;;;;;5033961;28;20180;-81
2024/02/08 09:18:20;;;;;;;12.73;7.20;;;409.70;2022.40;;;;;;5035559;28;20145;-80
2024/02/08 09:20:47;;;;;;;14.68;8.00;;;384.20;1996.80;;;;;;5024666;28;20045;-80
2024/02/08 09:23:14;;;;;;;12.68;6.45;;;435.20;1971.20;;;;;;5033385;28;20076;-82
2024/02/08 09:25:44;;;;;;;14.80;7.60;;;410.50;1945.60;;;;;;5033254;28;20044;-78
2024/02/08 09:28:35;;;;;;;14.23;6.35;;;435.60;1920.00;;;;;;5033112;28;20048;-81
2024/02/08 09:31:12;;;;;;;11.45;6.15;;;435.60;1894.40;;;;;;5050301;28;20032;-78
2024/02/08 09:33:50;;;;;;;11.25;5.90;;;435.40;1894.40;;;;;;5053929;28;20056;-81
2024/02/08 09:36:16;;;;;;;10.95;6.13;;;435.70;1868.80;;;;;;5052558;28;20029;-79
2024/02/08 09:38:43;;;;;;;12.30;6.13;;;435.80;1843.20;;;;;;5050667;28;20040;-79
2024/02/08 09:41:17;;;;;;;9.38;6.00;;;435.80;1843.20;;;;;;5044696;28;20021;-80
2024/02/08 09:43:46;;;;;;;11.15;6.07;;;435.40;1894.40;;;;;;5032767;28;20053;-79
2024/02/08 09:49:18;;;;;;;10.23;5.70;;;435.90;1868.80;;;;;;5032869;28;20057;-80
2024/02/08 09:51:56;;;;;;;10.65;5.68;;;435.80;1868.80;;;;;;5034017;28;20401;-82
2024/02/08 09:54:30;;;;;;;12.15;5.63;;;460.80;1843.20;;;;;;5040355;28;20044;-79
2024/02/08 09:57:22;;;;;;;12.02;5.90;;;460.90;1843.20;;;;;;5088517;28;20031;-75
2024/02/08 10:00:10;;;;;;;14.30;8.88;;;461.50;1817.60;;;;;;5103020;28;20027;-81
2024/02/08 10:02:53;;;;;;;12.50;7.72;;;461.50;1792.00;;;;;;5096067;28;20028;-80
2024/02/08 10:08:05;;;;;;;12.18;6.90;;;461.60;1792.00;;;;;;5082688;28;20054;-78
2024/02/08 10:10:56;;;;;;;14.23;8.88;;;461.70;1766.40;;;;;;5093147;28;20422;-79
2024/02/08 10:13:30;;;;;;;19.55;9.40;;;461.70;1766.40;;;;;;5086786;28;20055;-76
2024/02/08 10:16:02;;;;;;;16.30;9.30;;;461.70;1792.00;;;;;;5087723;28;20475;-76
2024/02/08 10:18:37;;;;;;;9.05;5.00;;;486.40;1792.00;;;;;;5088963;28;20387;-79
2024/02/08 10:21:13;;;;;;;14.68;6.93;;;486.70;2048.00;;;;;;5067435;28;20051;-79
2024/02/08 10:23:48;;;;;;;15.20;8.15;;;486.50;1792.00;;;;;;5089918;28;20122;-77
2024/02/08 10:26:22;;;;;;;13.05;7.00;;;486.60;1766.40;;;;;;5083510;28;20026;-80
2024/02/08 10:28:54;;;;;;;7.38;4.05;;;487.00;1715.20;;;;;;5087620;28;20038;-80
2024/02/08 10:31:24;;;;;;;11.57;5.40;;;486.70;1715.20;;;;;;5090148;28;20016;-80
2024/02/08 10:34:08;;;;;;;8.40;4.10;;;486.90;1715.20;;;;;;5091316;28;20048;-78
2024/02/08 10:36:39;;;;;;;9.38;5.00;;;486.70;1740.80;;;;;;5074288;28;20380;-81
2024/02/08 10:39:23;;;;;;;9.02;4.20;;;486.50;1715.20;;;;;;5079530;28;20391;-80
2024/02/08 10:41:58;;;;;;;7.85;3.67;;;487.00;1689.60;;;;;;5089231;28;20196;-79
2024/02/08 10:44:29;;;;;;;7.22;3.50;;;487.20;1664.00;;;;;;5071581;28;20051;-79
2024/02/08 10:47:06;;;;;;;12.02;5.82;;;487.10;1664.00;;;;;;5086894;28;20024;-79
2024/02/08 10:49:44;;;;;;;12.70;6.13;;;487.00;1689.60;;;;;;5094880;28;20502;-80
2024/02/08 10:52:19;;;;;;;7.72;4.50;;;512.00;1664.00;;;;;;5089572;28;20172;-79
2024/02/08 10:54:51;;;;;;;;;;;487.10;1689.60;;;;;;5098434;28;20031;-79
2024/02/08 10:57:39;;;;;;;10.93;6.03;;;512.00;1664.00;;;;;;5077754;28;19909;-79
2024/02/08 11:03:07;;;;;;;10.88;5.18;;;486.90;1689.60;;;;;;5085205;28;20070;-80
2024/02/08 11:08:50;;;;;;;13.75;7.18;;;487.10;1664.00;;;;;;5011199;28;20041;-78
2024/02/08 11:11:20;;;;;;;12.88;6.22;;;486.90;1689.60;;;;;;4994719;28;20567;-80
2024/02/08 11:13:53;;;;;;;15.82;6.45;;;486.70;1715.20;;;;;;5012103;28;20042;-81
2024/02/08 11:16:27;;;;;;;16.38;9.00;;;486.70;1689.60;;;;;;5008055;28;20033;-77
2024/02/08 11:18:54;;;;;;;9.88;5.65;;;486.70;1715.20;;;;;;5011199;28;20108;-79
2024/02/08 11:21:42;;;;;;;8.68;5.13;;;486.70;1689.60;;;;;;5008942;28;20045;-79
2024/02/08 11:24:08;;;;;;;10.60;4.55;;;486.70;1689.60;;;;;;5007018;28;20042;-80
2024/02/08 11:26:34;;;;;;;8.50;4.15;;;487.10;1664.00;;;;;;4991862;28;20058;-78
2024/02/08 11:29:18;;;;;;;10.25;5.03;;;487.20;1664.00;;;;;;5006103;28;20042;-79
2024/02/08 11:31:46;;;;;;;10.63;4.40;;;512.00;1664.00;;;;;;5004619;28;20022;-79
2024/02/08 11:34:15;;;;;;;8.90;4.20;;;487.30;1638.40;;;;;;5006863;28;20032;-79
2024/02/08 11:36:52;;;;;;;8.15;4.05;;;487.30;1638.40;;;;;;5007321;28;20038;-79
2024/02/08 11:39:30;;;;;;;10.52;5.82;;;512.20;1612.80;;;;;;4987372;28;20037;-79
2024/02/08 11:42:00;;;;;;;12.85;5.40;;;487.20;1664.00;;;;;;5020997;28;20036;-79
2024/02/08 11:44:29;;;;;;;7.35;4.32;;;487.30;1664.00;;;;;;5089839;28;20445;-79
2024/02/08 11:47:01;;;;;;;10.60;4.22;;;512.00;1638.40;;;;;;5090852;28;20015;-78
2024/02/08 11:49:32;;;;;;;23.90;13.40;;;487.20;1638.40;;;;;;5089586;28;20036;-79
2024/02/08 11:52:06;;;;;;;10.38;4.35;;;487.20;1664.00;;;;;;5090810;28;20409;-78
2024/02/08 11:54:37;;;;;;;11.68;5.43;;;512.10;1612.80;;;;;;5090624;28;20039;-79
2024/02/08 11:57:08;;;;;;;10.07;4.78;;;512.40;1612.80;;;;;;5074259;28;20474;-77
2024/02/08 11:59:37;;;;;;;12.18;5.95;;;512.80;1587.20;;;;;;5092938;28;20042;-79
2024/02/08 12:02:07;;;;;;;9.45;4.97;;;512.80;1561.60;;;;;;5089166;28;20386;-80
2024/02/08 12:04:35;;;;;;;12.05;6.47;;;512.80;1561.60;;;;;;5090502;28;20039;-80
2024/02/08 12:07:07;;;;;;;9.70;4.47;;;512.40;1587.20;;;;;;5096453;28;20548;-79
2024/02/08 12:09:36;;;;;;;8.40;3.80;;;512.40;1587.20;;;;;;5067380;28;20113;-80
2024/02/08 12:12:03;;;;;;;9.05;4.30;;;512.40;1561.60;;;;;;5090357;28;20024;-79
2024/02/08 12:14:30;;;;;;;10.30;4.20;;;512.90;1561.60;;;;;;5099364;27;20043;-80
2024/02/08 12:16:58;;;;;;;9.57;3.78;;;512.50;1561.60;;;;;;5091208;28;20032;-79
2024/02/08 12:19:25;;;;;;;7.72;3.78;;;512.70;1536.00;;;;;;5092067;28;20077;-79
2024/02/08 12:21:58;;;;;;;8.15;3.50;;;512.80;1536.00;;;;;;5091147;28;20509;-80
2024/02/08 12:24:25;;;;;;;10.38;4.05;;;512.70;1536.00;;;;;;5075271;28;20391;-79
2024/02/08 12:26:54;;;;;;;11.45;4.32;;;537.60;1561.60;;;;;;5084548;28;20022;-79
2024/02/08 12:29:24;;;;;;;8.00;4.30;;;512.40;1561.60;;;;;;5072416;28;20024;-79
2024/02/08 12:31:54;;;;;;;15.50;6.10;;;512.10;1587.20;;;;;;5086659;28;20191;-79
2024/02/08 12:34:31;;;;;;;7.47;3.70;;;512.00;1587.20;;;;;;5083326;28;20063;-80
2024/02/08 12:37:06;;;;;;;9.75;3.88;;;487.20;1587.20;;;;;;5091966;28;20036;-79
2024/02/08 12:39:49;;;;;;;8.77;3.80;;;512.00;1561.60;;;;;;5085282;28;20067;-79
2024/02/08 12:42:15;;;;;;;11.48;4.40;;;512.10;1561.60;;;;;;5089081;28;20506;-80
2024/02/08 12:44:48;;;;;;;10.65;4.75;;;512.40;1561.60;;;;;;5084232;28;20036;-78
2024/02/08 12:47:19;;;;;;;7.38;3.35;;;512.70;1536.00;;;;;;5091936;28;20028;-80
2024/02/08 12:49:46;;;;;;;5.60;3.35;;;512.50;1536.00;;;;;;5096304;28;20032;-79
2024/02/08 12:52:15;;;;;;;9.40;3.63;;;512.70;1536.00;;;;;;5105612;28;20082;-81
2024/02/08 12:54:41;;;;;;;8.52;4.10;;;512.80;1536.00;;;;;;5109759;28;20030;-79
2024/02/08 12:57:11;;;;;;;10.18;4.40;;;512.80;1536.00;;;;;;5099257;28;20024;-80
2024/02/08 12:59:42;;;;;;;10.30;4.13;;;512.80;1536.00;;;;;;5080953;28;20031;-78
2024/02/08 13:02:18;;;;;;;7.75;3.22;;;537.70;1561.60;;;;;;5093805;28;20032;-81
2024/02/08 13:04:50;;;;;;;10.77;4.50;;;537.80;1536.00;;;;;;5097828;28;20059;-80
2024/02/08 13:07:18;;;;;;;9.18;4.47;;;537.80;1536.00;;;;;;5095302;28;20039;-81
2024/02/08 13:09:45;;;;;;;10.85;4.45;;;537.90;1536.00;;;;;;5115151;28;20419;-81
2024/02/08 13:12:20;;;;;;;9.73;4.68;;;538.10;1510.40;;;;;;5115318;27;20573;-81
2024/02/08 13:14:50;;;;;;;9.52;5.15;;;538.30;1510.40;;;;;;5110745;28;20047;-79
2024/02/08 13:17:20;;;;;;;10.98;6.13;;;538.10;1510.40;;;;;;5087889;28;20051;-81
2024/02/08 13:19:55;;;;;;;7.15;4.35;;;538.10;1510.40;;;;;;5094012;28;20024;-81
2024/02/08 13:22:24;;;;;;;9.95;5.47;;;537.90;1536.00;;;;;;5096633;28;20061;-83
2024/02/08 13:24:52;;;;;;;10.35;5.13;;;537.90;1510.40;;;;;;5096559;28;20032;-80
2024/02/08 13:27:24;;;;;;;6.78;3.45;;;537.90;1510.40;;;;;;5096921;28;20101;-81
2024/02/08 13:30:00;;;;;;;9.68;4.25;;;537.80;1510.40;;;;;;5107289;28;20081;-81
2024/02/08 13:32:30;;;;;;;9.57;4.13;;;537.70;1510.40;;;;;;5084771;28;20020;-80
2024/02/08 13:35:00;;;;;;;10.27;3.75;;;512.70;1510.40;;;;;;5104035;28;20050;-82
2024/02/08 13:37:29;;;;;;;8.07;4.43;;;512.80;1510.40;;;;;;5111234;27;20415;-80
2024/02/08 13:39:59;;;;;;;9.30;4.55;;;537.90;1510.40;;;;;;5102677;28;20558;-80
2024/02/08 13:42:29;;;;;;;9.55;4.10;;;537.70;1510.40;;;;;;5095749;28;20448;-82
2024/02/08 13:45:01;;;;;;;7.97;4.10;;;537.70;1510.40;;;;;;5094134;28;20497;-80
2024/02/08 13:47:31;;;;;;;11.07;4.43;;;512.90;1484.80;;;;;;5097088;28;20817;-82
2024/02/08 13:49:59;;;;;;;11.35;6.10;;;537.80;1484.80;;;;;;5083917;28;20024;-81
2024/02/08 13:52:25;;;;;;;14.93;7.50;;;537.70;1484.80;;;;;;5091512;28;20051;-82
2024/02/08 13:54:54;;;;;;;10.85;5.78;;;512.60;1459.20;;;;;;5090394;28;20497;-81
2024/02/08 13:57:21;;;;;;;8.98;3.78;;;537.80;1484.80;;;;;;5083715;28;20090;-81
2024/02/08 13:59:51;;;;;;;7.57;3.60;;;512.90;1459.20;;;;;;5084525;28;20089;-81
2024/02/08 14:02:18;;;;;;;6.55;4.38;;;537.60;1510.40;;;;;;5086685;28;20056;-80
2024/02/08 14:04:50;;;;;;;16.63;9.95;;;512.80;1484.80;;;;;;5091698;28;20032;-82
2024/02/08 14:07:28;;;;;;;13.38;7.13;;;537.80;1510.40;;;;;;5086131;28;20032;-81
2024/02/08 14:09:59;;;;;;;10.23;5.40;;;537.80;1484.80;;;;;;5084714;28;21459;-81
2024/02/08 14:12:29;;;;;;;7.63;3.90;;;537.90;1484.80;;;;;;5084469;28;20039;-81
2024/02/08 14:14:57;;;;;;;9.07;6.38;;;538.10;1484.80;;;;;;5069036;28;20038;-80
2024/02/08 14:17:27;;;;;;;12.75;8.18;;;538.10;1484.80;;;;;;5068030;28;20039;-80
2024/02/08 14:19:57;;;;;;;10.85;5.13;;;537.80;1484.80;;;;;;5072571;28;20034;-81
2024/02/08 14:22:24;;;;;;;9.57;5.90;;;512.80;1484.80;;;;;;5091701;28;20059;-80
2024/02/08 14:24:53;;;;;;;11.88;4.82;;;512.80;1484.80;;;;;;5093387;28;20363;-81
2024/02/08 14:27:23;;;;;;;13.63;8.32;;;512.70;1484.80;;;;;;5091287;28;20066;-80
2024/02/08 14:29:50;;;;;;;11.48;6.18;;;512.80;1484.80;;;;;;5092494;28;20051;-81
2024/02/08 14:32:21;;;;;;;16.50;10.65;;;512.60;1510.40;;;;;;5092966;28;20129;-80
2024/02/08 14:34:47;;;;;;;36.38;20.52;;;512.20;1510.40;;;;;;5093353;28;20028;-82
2024/02/08 14:37:13;;;;;;;10.57;6.22;;;512.20;1510.40;;;;;;5074927;28;20507;-81
2024/02/08 14:39:38;;;;;;;9.13;5.07;;;512.00;1536.00;;;;;;5089141;28;20071;-81
2024/02/08 14:42:12;;;;;;;9.05;5.18;;;512.10;1510.40;;;;;;5087006;28;20553;-79